• Join FlightAware (Why Join?)
  • Login
  • US Flag 
03:44AM EST


 

Airport Tracker/Info


-or-


 

Live Flight TrackerFlight Track Log ✈ EJA122 ✈ 25-May-2013 ✈ KIND - KPIA

Flight Track Log - Related Links

Times and Time Zones

All times are in EDT time to prevent confusion due to time zone crossing. See the EJA122 flight status page for this flight to view local times or setup timezone preferences in your user account.

Time Position Orientation Groundspeed Altitude Reporting Facility
EDT Latitude Longitude Course Direction KTS MPH feet Rate Location/Type
12:17PM 39.7167 -86.2667 30° Northeast 169 194 1,900  Level Indianapolis TRACON
12:19PM 39.7833 -86.2167 30° Northeast 263 303 5,600 3,060 Climbing Indianapolis TRACON
12:20PM 39.8500 -86.2167 360° North 280 322 8,700 2,760 Climbing Indianapolis TRACON
12:21PM 39.9275 -86.2847 326° Northwest 263 303 11,800 1,920 Climbing Indianapolis Center
12:22PM 39.9897 -86.3478 322° Northwest 283 326 13,000 780 Climbing Indianapolis Center
12:23PM 40.0631 -86.4236 322° Northwest 334 384 13,500 1,140 Climbing Indianapolis Center
12:24PM 40.1300 -86.5078 316° Northwest 344 396 15,400 1,200 Climbing Chicago Center
12:25PM 40.1572 -86.6247 287° West 340 391 16,000 240 Climbing Chicago Center
12:26PM 40.1814 -86.7544 284° West 364 419 16,000  Level Chicago Center
12:27PM 40.2094 -86.9103 283° West 369 425 16,000  Level Chicago Center
12:28PM 40.2317 -87.0433 282° West 374 430 16,000  Level Chicago Center
12:29PM 40.2547 -87.1747 283° West 374 430 16,000  Level Chicago Center
12:30PM 40.2778 -87.3025 283° West 364 419 16,000  Level Chicago Center
12:31PM 40.2994 -87.4311 282° West 362 417 16,000  Level Chicago Center
12:32PM 40.3236 -87.5725 283° West 365 420 16,000  Level Chicago Center
12:33PM 40.3467 -87.7042 283° West 370 426 16,000  Level Chicago Center
12:34PM 40.3700 -87.8367 283° West 374 430 16,000  Level Chicago Center
12:35PM 40.3922 -87.9697 282° West 375 432 16,000  Level Chicago Center
12:36PM 40.4136 -88.1056 282° West 379 436 16,000 -120 Level Chicago Center
12:37PM 40.4372 -88.2403 283° West 379 436 15,800 -780 Descending Chicago Center
12:38PM 40.4614 -88.3903 282° West 351 404 14,500 -1,140 Descending Chicago Center
12:39PM 40.4806 -88.5075 282° West 332 382 13,500 -1,080 Descending Chicago Center
12:40PM 40.4989 -88.6192 282° West 316 364 12,400 -1,080 Descending Chicago Center
12:41PM 40.5161 -88.7278 282° West 307 353 11,300 -1,320 Descending Chicago Center
12:42PM 40.5306 -88.8206 282° West 271 312 9,800 -1,980 Descending Chicago Center
12:43PM 40.5242 -88.9189 265° West 254 292 7,300 -1,860 Descending Chicago Center
12:44PM 40.5175 -89.0117 265° West 254 292 6,100 -600 Descending Chicago Center
12:45PM 40.5111 -89.1064 265° West 258 297 6,100  Level Chicago Center
12:46PM 40.5022 -89.2019 263° West 262 302 6,100  Level Chicago Center
12:48PM 40.4942 -89.2964 264° West 260 299 6,100 -300 Level Chicago Center
12:49PM 40.4864 -89.3928 264° West 263 303 5,600 -780 Descending Chicago Center
12:50PM 40.4781 -89.4892 264° West 265 305 4,600 -780 Descending Chicago Center
12:51PM 40.5014 -89.5781 289° West 221 254 4,100 -300 Descending Chicago Center
12:52PM 40.5278 -89.6417 299° West 205 236 4,100 -480 Level Chicago Center
12:53PM 40.5444 -89.6967 292° West 170 196 3,200 -780 Descending Chicago Center
12:54PM 40.5658 -89.7483 299° West 167 192 2,500 -420 Descending Chicago Center
12:55PM 40.6086 -89.7439 North 164 189 2,400 -660 Descending Chicago Center
12:56PM 40.6383 -89.7108 40° Northeast 145 167 1,200 -840 Descending Chicago Center
12:57PM 40.6633 -89.6842 39° Northeast 122 140 700 -300 Descending Chicago Center
12:58PM 40.6581 -89.6703 117° Southeast 108 124 700  Level Chicago Center